createdAt,value
2022-11-13T00:00:40.659Z,1026.00
2022-11-13T00:01:40.671Z,1025.97
2022-11-13T00:02:40.749Z,1026.02
2022-11-13T00:03:40.714Z,1025.97
2022-11-13T00:04:40.711Z,1025.97
2022-11-13T00:05:40.720Z,1026.00
2022-11-13T00:06:40.772Z,1025.97
2022-11-13T00:07:40.754Z,1025.97
2022-11-13T00:08:40.774Z,1025.98
2022-11-13T00:09:40.781Z,1025.98
2022-11-13T00:10:40.785Z,1026.03
2022-11-13T00:11:40.794Z,1026.03
2022-11-13T00:12:40.806Z,1026.04
2022-11-13T00:13:40.820Z,1026.07
2022-11-13T00:14:40.829Z,1026.06
2022-11-13T00:15:40.845Z,1026.05
2022-11-13T00:16:40.855Z,1026.03
2022-11-13T00:17:40.867Z,1026.06
2022-11-13T00:18:40.879Z,1026.03
2022-11-13T00:19:40.895Z,1026.05
2022-11-13T00:20:40.906Z,1026.03
2022-11-13T00:21:40.917Z,1025.99
2022-11-13T00:22:40.931Z,1026.02
2022-11-13T00:23:40.946Z,1025.99
2022-11-13T00:24:40.954Z,1025.99
2022-11-13T00:25:40.969Z,1026.00
2022-11-13T00:26:40.981Z,1025.99
2022-11-13T00:27:40.996Z,1025.92
2022-11-13T00:28:41.005Z,1025.95
2022-11-13T00:29:41.018Z,1025.97
2022-11-13T00:30:41.031Z,1025.95
2022-11-13T00:31:41.047Z,1025.96
2022-11-13T00:32:41.059Z,1025.95
2022-11-13T00:34:47.478Z,1025.97
2022-11-13T00:35:41.094Z,1025.96
2022-11-13T00:36:41.110Z,1025.96
2022-11-13T00:37:41.119Z,1025.92
2022-11-13T00:38:41.136Z,1025.84
2022-11-13T00:39:41.145Z,1025.87
2022-11-13T00:40:41.159Z,1025.89
2022-11-13T00:41:41.170Z,1025.86
2022-11-13T00:42:41.186Z,1025.86
2022-11-13T00:43:41.198Z,1025.86
2022-11-13T00:44:41.208Z,1025.88
2022-11-13T00:45:41.223Z,1025.87
2022-11-13T00:46:41.235Z,1025.87
2022-11-13T00:47:41.245Z,1025.86
2022-11-13T00:48:41.261Z,1025.86
2022-11-13T00:49:41.274Z,1025.88
2022-11-13T00:50:41.287Z,1025.91
2022-11-13T00:51:41.298Z,1025.90
2022-11-13T00:52:41.311Z,1025.87
2022-11-13T00:53:41.329Z,1025.85
2022-11-13T00:54:41.337Z,1025.84
2022-11-13T00:55:41.352Z,1025.81
2022-11-13T00:56:41.362Z,1025.83
2022-11-13T00:57:41.376Z,1025.76
2022-11-13T00:58:41.418Z,1025.77
2022-11-13T00:59:41.404Z,1025.77
2022-11-13T01:00:41.414Z,1025.76
2022-11-13T01:01:41.469Z,1025.74
2022-11-13T01:02:41.439Z,1025.73
2022-11-13T01:03:41.457Z,1025.72
2022-11-13T01:04:41.467Z,1025.68
2022-11-13T01:05:41.480Z,1025.66
2022-11-13T01:06:41.553Z,1025.63
2022-11-13T01:07:41.505Z,1025.68
2022-11-13T01:08:41.516Z,1025.68
2022-11-13T01:09:41.530Z,1025.69
2022-11-13T01:10:42.279Z,1025.62
2022-11-13T01:11:41.556Z,1025.65
2022-11-13T01:12:41.570Z,1025.61
2022-11-13T01:13:41.582Z,1025.62
2022-11-13T01:14:41.596Z,1025.61
2022-11-13T01:15:41.609Z,1025.61
2022-11-13T01:16:41.622Z,1025.57
2022-11-13T01:17:41.634Z,1025.55
2022-11-13T01:18:41.647Z,1025.56
2022-11-13T01:19:41.663Z,1025.53
2022-11-13T01:20:41.672Z,1025.54
2022-11-13T01:21:41.692Z,1025.56
2022-11-13T01:22:41.699Z,1025.56
2022-11-13T01:23:41.714Z,1025.53
2022-11-13T01:24:41.729Z,1025.52
2022-11-13T01:25:41.738Z,1025.58
2022-11-13T01:26:41.749Z,1025.53
2022-11-13T01:27:41.764Z,1025.56
2022-11-13T01:28:41.777Z,1025.58
2022-11-13T01:29:41.791Z,1025.57
2022-11-13T01:30:41.803Z,1025.58
2022-11-13T01:31:41.820Z,1025.50
2022-11-13T01:32:41.829Z,1025.55
2022-11-13T01:33:41.845Z,1025.52
2022-11-13T01:34:41.860Z,1025.53
2022-11-13T01:35:41.870Z,1025.55
2022-11-13T01:36:41.883Z,1025.49
2022-11-13T01:37:41.897Z,1025.47
2022-11-13T01:38:41.914Z,1025.50
2022-11-13T01:39:41.925Z,1025.44
2022-11-13T01:40:41.934Z,1025.45
2022-11-13T01:41:41.952Z,1025.48
2022-11-13T01:42:41.966Z,1025.47
2022-11-13T01:43:41.977Z,1025.50
2022-11-13T01:44:41.991Z,1025.49
2022-11-13T01:45:42.002Z,1025.47
2022-11-13T01:46:42.015Z,1025.41
2022-11-13T01:47:42.029Z,1025.42
2022-11-13T01:48:42.041Z,1025.40
2022-11-13T01:49:42.056Z,1025.35
2022-11-13T01:50:42.068Z,1025.36
2022-11-13T01:51:42.081Z,1025.32
2022-11-13T01:52:42.094Z,1025.34
2022-11-13T01:53:42.107Z,1025.36
2022-11-13T01:54:42.121Z,1025.29
2022-11-13T01:55:42.135Z,1025.27
2022-11-13T01:56:42.147Z,1025.28
2022-11-13T01:57:42.165Z,1025.28
2022-11-13T01:58:42.174Z,1025.26
2022-11-13T01:59:42.188Z,1025.27
2022-11-13T02:00:42.211Z,1025.28
2022-11-13T02:01:42.283Z,1025.26
2022-11-13T02:02:42.226Z,1025.28
2022-11-13T02:03:42.243Z,1025.26
2022-11-13T02:04:42.265Z,1025.22
2022-11-13T02:05:42.272Z,1025.24
2022-11-13T02:06:42.324Z,1025.27
2022-11-13T02:07:42.295Z,1025.26
2022-11-13T02:08:42.308Z,1025.23
2022-11-13T02:09:42.328Z,1025.28
2022-11-13T02:10:42.335Z,1025.22
2022-11-13T02:11:42.348Z,1025.19
2022-11-13T02:12:42.362Z,1025.21
2022-11-13T02:13:42.375Z,1025.19
2022-11-13T02:14:42.390Z,1025.18
2022-11-13T02:15:42.401Z,1025.17
2022-11-13T02:16:42.415Z,1025.19
2022-11-13T02:17:42.430Z,1025.23
2022-11-13T02:18:42.444Z,1025.23
2022-11-13T02:19:42.460Z,1025.21
2022-11-13T02:20:42.474Z,1025.18
2022-11-13T02:21:42.485Z,1025.18
2022-11-13T02:22:42.497Z,1025.16
2022-11-13T02:23:42.510Z,1025.14
2022-11-13T02:24:45.230Z,1025.06
2022-11-13T02:25:42.536Z,1025.12
2022-11-13T02:26:42.550Z,1025.17
2022-11-13T02:27:42.563Z,1025.16
2022-11-13T02:28:42.577Z,1025.17
2022-11-13T02:29:42.599Z,1025.10
2022-11-13T02:30:42.623Z,1025.11
2022-11-13T02:31:42.626Z,1025.10
2022-11-13T02:32:42.632Z,1025.05
2022-11-13T02:33:42.647Z,1025.02
2022-11-13T02:34:42.676Z,1025.02
2022-11-13T02:35:42.676Z,1025.01
2022-11-13T02:36:42.684Z,1024.97
2022-11-13T02:37:42.699Z,1025.03
2022-11-13T02:38:42.713Z,1025.04
2022-11-13T02:39:42.725Z,1025.02
2022-11-13T02:40:42.740Z,1025.06
2022-11-13T02:41:42.754Z,1025.03
2022-11-13T02:42:42.767Z,1024.97
2022-11-13T02:43:42.782Z,1024.94
2022-11-13T02:44:42.792Z,1024.93
2022-11-13T02:45:42.806Z,1024.94
2022-11-13T02:46:42.820Z,1024.87
2022-11-13T02:47:42.835Z,1024.84
2022-11-13T02:48:42.847Z,1024.87
2022-11-13T02:49:42.863Z,1024.86
2022-11-13T02:50:42.874Z,1024.83
2022-11-13T02:51:42.889Z,1024.86
2022-11-13T02:52:42.930Z,1024.83
2022-11-13T02:53:42.914Z,1024.80
2022-11-13T02:54:42.930Z,1024.81
2022-11-13T02:55:42.943Z,1024.78
2022-11-13T02:56:42.957Z,1024.78
2022-11-13T02:57:42.971Z,1024.76
2022-11-13T02:58:42.983Z,1024.72
2022-11-13T02:59:43.000Z,1024.74
2022-11-13T03:00:43.015Z,1024.72
2022-11-13T03:01:43.054Z,1024.70
2022-11-13T03:02:43.038Z,1024.73
2022-11-13T03:03:58.644Z,1024.71
2022-11-13T03:05:11.009Z,1024.68
2022-11-13T03:05:43.082Z,1024.64
2022-11-13T03:06:43.128Z,1024.65
2022-11-13T03:07:43.107Z,1024.65
2022-11-13T03:08:43.120Z,1024.64
2022-11-13T03:09:43.136Z,1024.63
2022-11-13T03:10:43.151Z,1024.66
2022-11-13T03:11:43.165Z,1024.65
2022-11-13T03:12:43.176Z,1024.69
2022-11-13T03:13:43.189Z,1024.67
2022-11-13T03:14:43.208Z,1024.69
2022-11-13T03:15:43.224Z,1024.69
2022-11-13T03:16:43.234Z,1024.67
2022-11-13T03:17:43.245Z,1024.62
2022-11-13T03:18:43.261Z,1024.65
2022-11-13T03:19:43.275Z,1024.62
2022-11-13T03:20:43.291Z,1024.69
2022-11-13T03:21:43.301Z,1024.58
2022-11-13T03:22:43.315Z,1024.63
2022-11-13T03:23:43.333Z,1024.63
2022-11-13T03:24:43.346Z,1024.61
2022-11-13T03:25:43.356Z,1024.57
2022-11-13T03:26:43.371Z,1024.57
2022-11-13T03:27:43.386Z,1024.60
2022-11-13T03:28:43.399Z,1024.59
2022-11-13T03:29:43.412Z,1024.60
2022-11-13T03:30:43.427Z,1024.55
2022-11-13T03:31:43.441Z,1024.59
2022-11-13T03:32:43.457Z,1024.54
2022-11-13T03:33:43.471Z,1024.55
2022-11-13T03:34:43.481Z,1024.54
2022-11-13T03:35:46.984Z,1024.58
2022-11-13T03:36:43.510Z,1024.62
2022-11-13T03:37:43.525Z,1024.58
2022-11-13T03:38:43.539Z,1024.58
2022-11-13T03:39:43.551Z,1024.60
2022-11-13T03:40:43.564Z,1024.54
2022-11-13T03:41:43.578Z,1024.58
2022-11-13T03:42:43.644Z,1024.57
2022-11-13T03:43:43.609Z,1024.51
2022-11-13T03:44:43.620Z,1024.55
2022-11-13T03:45:43.634Z,1024.59
2022-11-13T03:46:43.648Z,1024.60
2022-11-13T03:47:43.663Z,1024.63
2022-11-13T03:48:43.677Z,1024.63
2022-11-13T03:49:43.689Z,1024.61
2022-11-13T03:50:45.626Z,1024.60
2022-11-13T03:51:43.720Z,1024.65
2022-11-13T03:52:43.730Z,1024.66
2022-11-13T03:53:43.745Z,1024.65
2022-11-13T03:54:43.762Z,1024.64
2022-11-13T03:55:43.773Z,1024.66
2022-11-13T03:56:43.786Z,1024.65
2022-11-13T03:57:43.801Z,1024.67
2022-11-13T03:58:48.460Z,1024.69
2022-11-13T03:59:43.835Z,1024.66
2022-11-13T04:00:43.848Z,1024.69
2022-11-13T04:01:43.883Z,1024.62
2022-11-13T04:02:43.872Z,1024.65
2022-11-13T04:03:43.891Z,1024.67
2022-11-13T04:04:43.898Z,1024.66
2022-11-13T04:05:43.913Z,1024.68
2022-11-13T04:06:43.964Z,1024.70
2022-11-13T04:07:43.941Z,1024.68
2022-11-13T04:08:43.953Z,1024.67
2022-11-13T04:09:43.968Z,1024.67
2022-11-13T04:10:43.984Z,1024.62
2022-11-13T04:11:43.995Z,1024.61
2022-11-13T04:12:44.009Z,1024.59
2022-11-13T04:13:44.023Z,1024.62
2022-11-13T04:14:44.037Z,1024.60
2022-11-13T04:15:44.049Z,1024.58
2022-11-13T04:16:44.063Z,1024.58
2022-11-13T04:17:44.078Z,1024.59
2022-11-13T04:18:44.092Z,1024.54
2022-11-13T04:19:44.110Z,1024.55
2022-11-13T04:20:44.123Z,1024.53
2022-11-13T04:21:44.133Z,1024.46
2022-11-13T04:22:44.147Z,1024.46
2022-11-13T04:23:44.161Z,1024.42
2022-11-13T04:24:44.176Z,1024.44
2022-11-13T04:25:44.191Z,1024.43
2022-11-13T04:26:44.204Z,1024.40
2022-11-13T04:27:44.219Z,1024.41
2022-11-13T04:28:44.232Z,1024.41
2022-11-13T04:29:44.245Z,1024.43
2022-11-13T04:30:44.260Z,1024.40
2022-11-13T04:31:44.276Z,1024.37
2022-11-13T04:32:44.285Z,1024.42
2022-11-13T04:33:44.301Z,1024.40
2022-11-13T04:34:44.314Z,1024.39
2022-11-13T04:35:44.329Z,1024.36
2022-11-13T04:36:44.347Z,1024.36
2022-11-13T04:37:44.356Z,1024.33
2022-11-13T04:38:44.372Z,1024.34
2022-11-13T04:39:44.384Z,1024.37
2022-11-13T04:40:44.397Z,1024.39
2022-11-13T04:41:44.414Z,1024.40
2022-11-13T04:42:44.428Z,1024.35
2022-11-13T04:43:44.441Z,1024.35
2022-11-13T04:44:44.454Z,1024.31
2022-11-13T04:45:44.470Z,1024.28
2022-11-13T04:46:44.483Z,1024.25
2022-11-13T04:47:44.507Z,1024.24
2022-11-13T04:48:44.525Z,1024.29
2022-11-13T04:49:44.525Z,1024.32
2022-11-13T04:50:44.539Z,1024.35
2022-11-13T04:51:44.559Z,1024.41
2022-11-13T04:52:44.579Z,1024.39
2022-11-13T04:53:44.589Z,1024.35
2022-11-13T04:54:44.594Z,1024.37
2022-11-13T04:55:44.607Z,1024.34
2022-11-13T04:56:44.623Z,1024.33
2022-11-13T04:57:44.636Z,1024.29
2022-11-13T04:58:44.653Z,1024.34
2022-11-13T04:59:44.667Z,1024.36
2022-11-13T05:00:44.678Z,1024.35
2022-11-13T05:01:44.729Z,1024.36
2022-11-13T05:02:44.711Z,1024.36
2022-11-13T05:03:44.720Z,1024.32
2022-11-13T05:04:44.734Z,1024.34
2022-11-13T05:05:44.745Z,1024.27
2022-11-13T05:06:44.816Z,1024.32
2022-11-13T05:07:44.774Z,1024.32
2022-11-13T05:08:44.787Z,1024.30
2022-11-13T05:09:44.803Z,1024.34
2022-11-13T05:10:44.816Z,1024.31
2022-11-13T05:11:44.831Z,1024.31
2022-11-13T05:12:44.843Z,1024.34
2022-11-13T05:13:44.858Z,1024.32
2022-11-13T05:14:44.875Z,1024.33
2022-11-13T05:15:44.889Z,1024.35
2022-11-13T05:16:44.900Z,1024.38
2022-11-13T05:17:44.922Z,1024.35
2022-11-13T05:18:44.928Z,1024.30
2022-11-13T05:19:44.941Z,1024.33
2022-11-13T05:20:44.956Z,1024.38
2022-11-13T05:21:44.969Z,1024.33
2022-11-13T05:22:44.983Z,1024.34
2022-11-13T05:23:44.997Z,1024.37
2022-11-13T05:24:45.013Z,1024.33
2022-11-13T05:25:45.024Z,1024.36
2022-11-13T05:26:45.037Z,1024.32
2022-11-13T05:27:45.052Z,1024.26
2022-11-13T05:28:45.067Z,1024.27
2022-11-13T05:29:45.106Z,1024.28
2022-11-13T05:30:45.093Z,1024.27
2022-11-13T05:31:45.109Z,1024.23
2022-11-13T05:32:45.124Z,1024.26
2022-11-13T05:33:45.136Z,1024.25
2022-11-13T05:34:45.148Z,1024.28
2022-11-13T05:35:45.164Z,1024.28
2022-11-13T05:36:45.175Z,1024.21
2022-11-13T05:37:45.190Z,1024.24
2022-11-13T05:38:45.203Z,1024.23
2022-11-13T05:39:45.216Z,1024.24
2022-11-13T05:40:45.230Z,1024.24
2022-11-13T05:41:45.245Z,1024.23
2022-11-13T05:42:45.308Z,1024.26
2022-11-13T05:43:45.289Z,1024.23
2022-11-13T05:44:45.285Z,1024.23
2022-11-13T05:45:45.300Z,1024.21
2022-11-13T05:46:45.314Z,1024.20
2022-11-13T05:47:45.329Z,1024.21
2022-11-13T05:48:45.342Z,1024.19
2022-11-13T05:49:45.354Z,1024.22
2022-11-13T05:50:45.369Z,1024.19
2022-11-13T05:51:45.383Z,1024.22
2022-11-13T05:52:45.394Z,1024.18
2022-11-13T05:53:45.408Z,1024.20
2022-11-13T05:54:45.423Z,1024.17
2022-11-13T05:55:45.437Z,1024.16
2022-11-13T05:56:45.451Z,1024.19
2022-11-13T05:57:45.465Z,1024.15
2022-11-13T05:58:45.479Z,1024.17
2022-11-13T05:59:45.493Z,1024.17
2022-11-13T06:00:45.505Z,1024.18
2022-11-13T06:01:45.571Z,1024.12
2022-11-13T06:02:45.535Z,1024.13
2022-11-13T06:03:45.547Z,1024.17
2022-11-13T06:04:45.564Z,1024.14
2022-11-13T06:05:45.576Z,1024.15
2022-11-13T06:06:45.670Z,1024.16
2022-11-13T06:07:45.603Z,1024.17
2022-11-13T06:08:45.620Z,1024.15
2022-11-13T06:09:45.629Z,1024.11
2022-11-13T06:10:45.655Z,1024.08
2022-11-13T06:11:45.662Z,1024.12
2022-11-13T06:12:45.677Z,1024.08
2022-11-13T06:13:45.685Z,1024.04
2022-11-13T06:14:45.700Z,1024.09
2022-11-13T06:15:45.714Z,1024.07
2022-11-13T06:16:45.728Z,1024.01
2022-11-13T06:17:45.744Z,1024.02
2022-11-13T06:18:45.758Z,1024.00
2022-11-13T06:19:45.772Z,1023.98
2022-11-13T06:20:45.784Z,1023.94
2022-11-13T06:21:45.806Z,1023.93
2022-11-13T06:22:45.811Z,1023.96
2022-11-13T06:23:45.825Z,1023.96
2022-11-13T06:24:45.838Z,1023.96
2022-11-13T06:25:45.855Z,1023.94
2022-11-13T06:26:45.868Z,1023.94
2022-11-13T06:27:45.884Z,1023.91
2022-11-13T06:28:45.893Z,1023.93
2022-11-13T06:29:45.908Z,1023.90
2022-11-13T06:30:45.923Z,1023.88
2022-11-13T06:31:45.947Z,1023.90
2022-11-13T06:32:45.951Z,1023.93
2022-11-13T06:33:45.967Z,1023.89
2022-11-13T06:34:45.980Z,1023.87
2022-11-13T06:35:45.995Z,1023.90
2022-11-13T06:36:46.006Z,1023.85
2022-11-13T06:37:46.022Z,1023.85
2022-11-13T06:38:46.091Z,1023.84
2022-11-13T06:39:46.049Z,1023.85
2022-11-13T06:40:46.062Z,1023.85
2022-11-13T06:41:46.080Z,1023.84
2022-11-13T06:42:46.091Z,1023.85
2022-11-13T06:43:46.110Z,1023.84
2022-11-13T06:44:46.120Z,1023.83
2022-11-13T06:45:46.135Z,1023.82
2022-11-13T06:46:46.145Z,1023.88
2022-11-13T06:47:46.163Z,1023.86
2022-11-13T06:48:46.177Z,1023.84
2022-11-13T06:49:46.191Z,1023.85
2022-11-13T06:50:48.568Z,1023.87
2022-11-13T06:51:46.218Z,1023.84
2022-11-13T06:52:46.230Z,1023.87
2022-11-13T06:53:46.243Z,1023.89
2022-11-13T06:54:46.259Z,1023.83
2022-11-13T06:55:46.274Z,1023.83
2022-11-13T06:56:46.286Z,1023.81
2022-11-13T06:57:46.301Z,1023.76
2022-11-13T06:58:46.316Z,1023.75
2022-11-13T06:59:46.334Z,1023.78
2022-11-13T07:00:46.396Z,1023.76
2022-11-13T07:01:46.355Z,1023.77
2022-11-13T07:02:46.376Z,1023.77
2022-11-13T07:03:46.387Z,1023.78
2022-11-13T07:04:46.399Z,1023.76
2022-11-13T07:05:46.449Z,1023.72
2022-11-13T07:06:46.474Z,1023.75
2022-11-13T07:07:46.441Z,1023.73
2022-11-13T07:08:46.456Z,1023.74
2022-11-13T07:09:46.474Z,1023.73
2022-11-13T07:10:46.499Z,1023.68
2022-11-13T07:11:46.500Z,1023.71
2022-11-13T07:12:50.645Z,1023.66
2022-11-13T07:13:46.527Z,1023.67
2022-11-13T07:14:46.550Z,1023.65
2022-11-13T07:15:46.555Z,1023.65
2022-11-13T07:17:08.131Z,1023.62
2022-11-13T07:17:46.582Z,1023.62
2022-11-13T07:18:46.595Z,1023.61
2022-11-13T07:19:46.612Z,1023.64
2022-11-13T07:20:46.626Z,1023.58
2022-11-13T07:21:46.640Z,1023.68
2022-11-13T07:22:46.654Z,1023.62
2022-11-13T07:23:46.666Z,1023.57
2022-11-13T07:24:46.682Z,1023.63
2022-11-13T07:25:46.694Z,1023.58
2022-11-13T07:26:46.710Z,1023.64
2022-11-13T07:27:46.724Z,1023.57
2022-11-13T07:28:46.737Z,1023.56
2022-11-13T07:29:46.751Z,1023.58
2022-11-13T07:30:46.766Z,1023.58
2022-11-13T07:31:46.780Z,1023.64
2022-11-13T07:32:46.794Z,1023.62
2022-11-13T07:33:46.806Z,1023.60
2022-11-13T07:34:46.819Z,1023.67
2022-11-13T07:35:46.836Z,1023.68
2022-11-13T07:36:46.849Z,1023.65
2022-11-13T07:37:46.865Z,1023.66
2022-11-13T07:38:46.877Z,1023.68
2022-11-13T07:39:46.892Z,1023.66
2022-11-13T07:40:46.905Z,1023.69
2022-11-13T07:41:46.919Z,1023.70
2022-11-13T07:42:46.936Z,1023.71
2022-11-13T07:43:46.950Z,1023.71
2022-11-13T07:44:55.258Z,1023.76
2022-11-13T07:45:46.977Z,1023.68
2022-11-13T07:46:46.989Z,1023.72
2022-11-13T07:47:47.008Z,1023.71
2022-11-13T07:48:47.020Z,1023.77
2022-11-13T07:49:47.036Z,1023.63
2022-11-13T07:50:47.050Z,1023.68
2022-11-13T07:51:47.061Z,1023.68
2022-11-13T07:52:47.075Z,1023.68
2022-11-13T07:53:47.088Z,1023.66
2022-11-13T07:54:47.107Z,1023.62
2022-11-13T07:55:47.118Z,1023.61
2022-11-13T07:56:47.132Z,1023.64
2022-11-13T07:57:47.154Z,1023.62
2022-11-13T07:58:47.160Z,1023.59
2022-11-13T07:59:47.175Z,1023.62
2022-11-13T08:00:47.248Z,1023.61
2022-11-13T08:01:47.203Z,1023.61
2022-11-13T08:02:47.219Z,1023.52
2022-11-13T08:03:47.233Z,1023.57
2022-11-13T08:04:47.259Z,1023.52
2022-11-13T08:05:47.261Z,1023.60
2022-11-13T08:06:47.284Z,1023.58
2022-11-13T08:07:51.025Z,1023.65
2022-11-13T08:08:47.305Z,1023.67
2022-11-13T08:09:47.315Z,1023.69
2022-11-13T08:10:47.332Z,1023.68
2022-11-13T08:11:47.345Z,1023.65
2022-11-13T08:12:47.360Z,1023.64
2022-11-13T08:13:47.374Z,1023.61
2022-11-13T08:14:47.387Z,1023.63
2022-11-13T08:15:47.405Z,1023.65
2022-11-13T08:16:47.416Z,1023.66
2022-11-13T08:17:47.431Z,1023.65
2022-11-13T08:18:47.445Z,1023.66
2022-11-13T08:19:47.461Z,1023.64
2022-11-13T08:20:47.474Z,1023.61
2022-11-13T08:21:47.493Z,1023.59
2022-11-13T08:22:47.503Z,1023.62
2022-11-13T08:23:47.520Z,1023.61
2022-11-13T08:24:47.532Z,1023.63
2022-11-13T08:25:47.547Z,1023.63
2022-11-13T08:26:47.561Z,1023.60
2022-11-13T08:27:47.578Z,1023.58
2022-11-13T08:28:47.590Z,1023.57
2022-11-13T08:29:47.605Z,1023.59
2022-11-13T08:30:47.620Z,1023.59
2022-11-13T08:31:47.635Z,1023.62
2022-11-13T08:32:47.652Z,1023.60
2022-11-13T08:33:47.662Z,1023.56
2022-11-13T08:34:47.677Z,1023.57
2022-11-13T08:35:47.693Z,1023.58
2022-11-13T08:36:47.711Z,1023.54
2022-11-13T08:37:47.725Z,1023.54
2022-11-13T08:38:47.735Z,1023.60
2022-11-13T08:39:47.751Z,1023.52
2022-11-13T08:40:47.765Z,1023.54
2022-11-13T08:41:47.781Z,1023.52
2022-11-13T08:42:47.799Z,1023.53
2022-11-13T08:43:47.810Z,1023.53
2022-11-13T08:44:47.826Z,1023.52
2022-11-13T08:45:47.842Z,1023.57
2022-11-13T08:46:47.855Z,1023.57
2022-11-13T08:47:47.868Z,1023.53
2022-11-13T08:48:47.884Z,1023.52
2022-11-13T08:49:47.898Z,1023.57
2022-11-13T08:50:47.914Z,1023.55
2022-11-13T08:51:47.929Z,1023.55
2022-11-13T08:52:47.941Z,1023.52
2022-11-13T08:53:47.958Z,1023.58
2022-11-13T08:54:47.972Z,1023.58
2022-11-13T08:55:47.987Z,1023.52
2022-11-13T08:56:51.549Z,1023.56
2022-11-13T08:57:48.046Z,1023.58
2022-11-13T08:58:48.048Z,1023.58
2022-11-13T08:59:48.049Z,1023.59
2022-11-13T09:00:48.069Z,1023.60
2022-11-13T09:01:48.078Z,1023.55
2022-11-13T09:02:48.091Z,1023.59
2022-11-13T09:03:48.153Z,1023.53
2022-11-13T09:04:48.121Z,1023.52
2022-11-13T09:05:48.138Z,1023.55
2022-11-13T09:06:48.192Z,1023.58
2022-11-13T09:07:48.165Z,1023.51
2022-11-13T09:08:48.182Z,1023.56
2022-11-13T09:09:48.195Z,1023.54
2022-11-13T09:10:48.217Z,1023.51
2022-11-13T09:11:48.232Z,1023.49
2022-11-13T09:12:48.240Z,1023.51
2022-11-13T09:13:52.944Z,1023.48
2022-11-13T09:14:48.275Z,1023.50
2022-11-13T09:15:48.289Z,1023.52
2022-11-13T09:16:48.302Z,1023.47
2022-11-13T09:17:48.318Z,1023.47
2022-11-13T09:18:48.348Z,1023.45
2022-11-13T09:19:48.361Z,1023.41
2022-11-13T09:20:48.371Z,1023.42
2022-11-13T09:21:48.379Z,1023.43
2022-11-13T09:22:48.397Z,1023.44
2022-11-13T09:23:48.409Z,1023.48
2022-11-13T09:24:48.424Z,1023.46
2022-11-13T09:25:48.439Z,1023.44
2022-11-13T09:26:48.454Z,1023.47
2022-11-13T09:27:48.477Z,1023.48
2022-11-13T09:28:48.483Z,1023.49
2022-11-13T09:29:51.487Z,1023.40
2022-11-13T09:30:48.517Z,1023.47
2022-11-13T09:31:48.530Z,1023.49
2022-11-13T09:32:48.545Z,1023.42
2022-11-13T09:33:48.561Z,1023.44
2022-11-13T09:34:48.578Z,1023.47
2022-11-13T09:35:48.590Z,1023.41
2022-11-13T09:36:48.605Z,1023.44
2022-11-13T09:37:48.621Z,1023.49
2022-11-13T09:38:48.638Z,1023.45
2022-11-13T09:39:48.666Z,1023.43
2022-11-13T09:40:48.667Z,1023.38
2022-11-13T09:41:48.682Z,1023.37
2022-11-13T09:42:48.699Z,1023.40
2022-11-13T09:43:48.713Z,1023.38
2022-11-13T09:44:48.728Z,1023.38
2022-11-13T09:45:48.748Z,1023.35
2022-11-13T09:46:48.760Z,1023.39
2022-11-13T09:47:48.775Z,1023.38
2022-11-13T09:48:48.792Z,1023.38
2022-11-13T09:49:48.807Z,1023.40
2022-11-13T09:50:48.823Z,1023.38
2022-11-13T09:51:48.837Z,1023.42
2022-11-13T09:52:48.851Z,1023.37
2022-11-13T09:53:48.867Z,1023.41
2022-11-13T09:54:48.886Z,1023.42
2022-11-13T09:55:48.915Z,1023.42
2022-11-13T09:56:48.914Z,1023.38
2022-11-13T09:57:48.930Z,1023.35
2022-11-13T09:58:48.947Z,1023.33
2022-11-13T09:59:48.963Z,1023.37
2022-11-13T10:00:49.000Z,1023.31
2022-11-13T10:01:48.990Z,1023.38
2022-11-13T10:02:49.008Z,1023.36
2022-11-13T10:04:04.681Z,1023.36
2022-11-13T10:04:49.037Z,1023.35
2022-11-13T10:05:49.053Z,1023.33
2022-11-13T10:06:49.113Z,1023.28
2022-11-13T10:07:49.086Z,1023.29
2022-11-13T10:08:49.101Z,1023.32
2022-11-13T10:09:49.119Z,1023.26
2022-11-13T10:10:54.825Z,1023.23
2022-11-13T10:11:49.147Z,1023.22
2022-11-13T10:12:49.163Z,1023.16
2022-11-13T10:13:49.178Z,1023.17
2022-11-13T10:14:49.198Z,1023.13
2022-11-13T10:15:49.213Z,1023.12
2022-11-13T10:16:49.226Z,1023.17
2022-11-13T10:17:49.242Z,1023.18
2022-11-13T10:18:49.259Z,1023.18
2022-11-13T10:19:49.276Z,1023.17
2022-11-13T10:20:49.291Z,1023.13
2022-11-13T10:21:52.184Z,1023.14
2022-11-13T10:22:49.320Z,1023.20
2022-11-13T10:23:49.338Z,1023.18
2022-11-13T10:24:49.352Z,1023.15
2022-11-13T10:25:49.383Z,1023.14
2022-11-13T10:26:49.384Z,1023.15
2022-11-13T10:27:49.431Z,1023.14
2022-11-13T10:28:51.200Z,1023.08
2022-11-13T10:29:49.480Z,1023.10
2022-11-13T10:30:49.451Z,1023.08
2022-11-13T10:31:49.465Z,1023.09
2022-11-13T10:32:49.482Z,1023.03
2022-11-13T10:33:49.495Z,1023.06
2022-11-13T10:34:49.512Z,1023.06
2022-11-13T10:35:49.527Z,1023.06
2022-11-13T10:36:49.543Z,1023.06
2022-11-13T10:37:49.559Z,1023.06
2022-11-13T10:38:49.575Z,1022.99
2022-11-13T10:39:49.595Z,1023.04
2022-11-13T10:40:49.607Z,1023.02
2022-11-13T10:41:49.630Z,1022.98
2022-11-13T10:42:49.640Z,1022.99
2022-11-13T10:43:49.657Z,1023.04
2022-11-13T10:44:49.672Z,1023.01
2022-11-13T10:45:49.688Z,1022.96
2022-11-13T10:46:49.710Z,1023.02
2022-11-13T10:48:03.833Z,1022.98
2022-11-13T10:48:49.738Z,1022.97
2022-11-13T10:49:49.751Z,1022.94
2022-11-13T10:50:49.776Z,1022.93
2022-11-13T10:51:49.788Z,1022.92
2022-11-13T10:52:49.802Z,1022.90
2022-11-13T10:53:49.821Z,1022.89
2022-11-13T10:54:49.836Z,1022.92
2022-11-13T10:55:49.850Z,1022.92
2022-11-13T10:56:49.865Z,1022.89
2022-11-13T10:57:52.610Z,1022.88
2022-11-13T10:58:49.902Z,1022.84
2022-11-13T10:59:49.916Z,1022.84
2022-11-13T11:00:50.060Z,1022.84
2022-11-13T11:01:49.946Z,1022.83
2022-11-13T11:02:49.964Z,1022.83
2022-11-13T11:03:49.982Z,1022.80
2022-11-13T11:04:49.997Z,1022.82
2022-11-13T11:05:50.011Z,1022.77
2022-11-13T11:07:18.584Z,1022.78
2022-11-13T11:07:50.091Z,1022.79
2022-11-13T11:08:50.061Z,1022.75
2022-11-13T11:09:50.076Z,1022.71
2022-11-13T11:10:50.094Z,1022.72
2022-11-13T11:11:50.110Z,1022.71
2022-11-13T11:12:50.127Z,1022.72
2022-11-13T11:13:50.142Z,1022.68
2022-11-13T11:14:50.159Z,1022.66
2022-11-13T11:15:50.175Z,1022.72
2022-11-13T11:16:50.192Z,1022.64
2022-11-13T11:17:50.208Z,1022.71
2022-11-13T11:18:50.226Z,1022.66
2022-11-13T11:19:50.241Z,1022.63
2022-11-13T11:20:50.281Z,1022.61
2022-11-13T11:21:50.273Z,1022.59
2022-11-13T11:22:50.291Z,1022.60
2022-11-13T11:23:55.578Z,1022.54
2022-11-13T11:24:50.341Z,1022.56
2022-11-13T11:25:50.339Z,1022.51
2022-11-13T11:26:50.357Z,1022.53
2022-11-13T11:27:50.372Z,1022.48
2022-11-13T11:28:50.387Z,1022.47
2022-11-13T11:29:50.406Z,1022.49
2022-11-13T11:30:50.428Z,1022.52
2022-11-13T11:31:50.438Z,1022.49
2022-11-13T11:32:50.453Z,1022.45
2022-11-13T11:33:50.470Z,1022.43
2022-11-13T11:34:53.718Z,1022.40
2022-11-13T11:35:50.501Z,1022.43
2022-11-13T11:36:50.520Z,1022.39
2022-11-13T11:37:50.537Z,1022.37
2022-11-13T11:38:50.551Z,1022.38
2022-11-13T11:39:50.569Z,1022.36
2022-11-13T11:40:50.582Z,1022.35
2022-11-13T11:41:50.601Z,1022.37
2022-11-13T11:42:50.618Z,1022.34
2022-11-13T11:43:50.636Z,1022.28
2022-11-13T11:44:50.655Z,1022.36
2022-11-13T11:45:50.666Z,1022.30
2022-11-13T11:46:50.683Z,1022.29
2022-11-13T11:47:50.707Z,1022.30
2022-11-13T11:48:50.718Z,1022.27
2022-11-13T11:49:50.734Z,1022.26
2022-11-13T11:50:50.752Z,1022.22
2022-11-13T11:51:50.777Z,1022.26
2022-11-13T11:52:50.783Z,1022.25
2022-11-13T11:53:50.811Z,1022.21
2022-11-13T11:54:50.822Z,1022.25
2022-11-13T11:55:50.833Z,1022.22
2022-11-13T11:56:50.851Z,1022.21
2022-11-13T11:57:50.866Z,1022.15
2022-11-13T11:58:50.883Z,1022.18
2022-11-13T11:59:50.900Z,1022.21
2022-11-13T12:00:50.919Z,1022.15
2022-11-13T12:01:50.933Z,1022.16
2022-11-13T12:02:50.951Z,1022.12
2022-11-13T12:03:50.967Z,1022.09
2022-11-13T12:04:50.998Z,1022.06
2022-11-13T12:05:50.998Z,1022.07
2022-11-13T12:06:51.088Z,1022.00